ilmateenistus.ee keskkonnaagentuur.ee
EETN Таллинн
FTEO31 EETN 260500
TAF EETN 260530Z 2606/2706 08017G28KT 3000 SN DRSN BKN010 OVC015
    TEMPO 2606/2612 1500 +SN BLSN VV008 TEMPO 2612/2624 2000 SHSN BKN008
    BKN015CB BECMG 2700/2702 8000 BKN015=

SPECI EETN 260603Z 08016KT 3500 SN DRSN OVC008 M01/M02 Q0987 R08/490394 =
Таллинн
EEKA Кярдла
FCEO32 EETN 260400
TAF EEKA 260400Z 2605/2611 08015G25KT 5000 SN BKN005 OVC010 TEMPO
    2605/2611 1500 +SN BLSN VV003=

METAR EEKA 260550Z 07013KT 020V110 7000 -FZRASN OVC006 M01/M01 Q0984=
Кярдла
EEKE Курессааре
FCEO32 EETN 260600
TAF EEKE 260600Z 2607/2613 19012KT 9999 BKN008 OVC015 TEMPO 2607/2613
    17015G25KT 3000 RASN BKN005 OVC012=

METAR EEKE 260550Z 18011KT 9999 -RASN SCT007 BKN009 OVC016 02/01 Q0983=
Курессааре
EEPU Пярну
METAR EEPU 260550Z 13003KT 090V170 3600 -RASN BR BKN003 OVC006 01/01 Q0985=
Пярну
EETU Тарту
METAR EETU 260550Z AUTO VRB03KT 8000 OVC002/// M00/M00 Q0986=
Тарту
EEEI Эмари
METAR EEEI 260550Z 06014KT 2100 SN BLSN BKN007 OVC013 M01/M02 Q0986 R06/491092 NOSIG=
Эмари